createdAt,value
2023-03-27T00:00:13.492Z,80.30
2023-03-27T00:01:13.461Z,80.09
2023-03-27T00:02:13.412Z,79.68
2023-03-27T00:03:13.430Z,79.68
2023-03-27T00:04:13.434Z,79.88
2023-03-27T00:05:13.350Z,79.68
2023-03-27T00:06:13.360Z,79.27
2023-03-27T00:07:13.329Z,79.06
2023-03-27T00:08:13.311Z,79.16
2023-03-27T00:09:13.291Z,79.20
2023-03-27T00:10:13.329Z,78.64
2023-03-27T00:11:13.283Z,77.81
2023-03-27T00:12:13.265Z,78.16
2023-03-27T00:13:13.252Z,78.06
2023-03-27T00:14:13.233Z,77.64
2023-03-27T00:15:13.233Z,76.92
2023-03-27T00:16:13.293Z,76.61
2023-03-27T00:17:13.206Z,76.71
2023-03-27T00:18:13.190Z,76.81
2023-03-27T00:19:13.221Z,77.12
2023-03-27T00:20:13.168Z,77.23
2023-03-27T00:21:13.245Z,76.71
2023-03-27T00:22:13.138Z,76.92
2023-03-27T00:23:13.128Z,76.61
2023-03-27T00:24:13.110Z,76.50
2023-03-27T00:25:13.088Z,76.29
2023-03-27T00:26:13.099Z,76.29
2023-03-27T00:27:13.065Z,75.36
2023-03-27T00:28:13.066Z,75.15
2023-03-27T00:29:13.040Z,75.26
2023-03-27T00:30:13.042Z,75.15
2023-03-27T00:31:13.095Z,75.19
2023-03-27T00:32:13.002Z,75.40
2023-03-27T00:33:12.989Z,75.60
2023-03-27T00:34:12.979Z,74.98
2023-03-27T00:35:12.957Z,74.88
2023-03-27T00:36:12.965Z,74.67
2023-03-27T00:37:12.937Z,75.19
2023-03-27T00:38:12.928Z,75.19
2023-03-27T00:39:12.910Z,74.67
2023-03-27T00:40:12.908Z,73.94
2023-03-27T00:41:12.990Z,73.94
2023-03-27T00:42:12.875Z,73.53
2023-03-27T00:43:12.868Z,73.63
2023-03-27T00:44:12.850Z,73.43
2023-03-27T00:45:12.833Z,73.22
2023-03-27T00:46:12.871Z,72.70
2023-03-27T00:47:12.827Z,72.80
2023-03-27T00:48:12.798Z,72.49
2023-03-27T00:49:12.791Z,72.39
2023-03-27T00:50:12.777Z,72.80
2023-03-27T00:51:12.771Z,72.91
2023-03-27T00:52:12.748Z,73.43
2023-03-27T00:53:12.731Z,73.22
2023-03-27T00:54:12.721Z,72.91
2023-03-27T00:55:12.702Z,73.01
2023-03-27T00:56:12.717Z,73.32
2023-03-27T00:57:12.783Z,73.46
2023-03-27T00:58:12.667Z,73.15
2023-03-27T00:59:12.678Z,73.25
2023-03-27T01:00:12.643Z,73.36
2023-03-27T01:01:12.658Z,73.36
2023-03-27T01:02:12.634Z,73.46
2023-03-27T01:03:12.644Z,73.36
2023-03-27T01:04:12.605Z,73.28
2023-03-27T01:05:12.577Z,73.28
2023-03-27T01:06:12.575Z,73.80
2023-03-27T01:07:12.548Z,73.80
2023-03-27T01:08:12.541Z,73.80
2023-03-27T01:09:20.149Z,74.22
2023-03-27T01:10:13.517Z,74.22
2023-03-27T01:11:12.510Z,74.77
2023-03-27T01:12:12.486Z,75.19
2023-03-27T01:13:12.475Z,75.50
2023-03-27T01:14:12.454Z,76.02
2023-03-27T01:15:12.437Z,76.12
2023-03-27T01:16:12.501Z,76.54
2023-03-27T01:17:12.413Z,76.89
2023-03-27T01:18:12.408Z,76.99
2023-03-27T01:19:12.507Z,77.20
2023-03-27T01:20:12.376Z,77.30
2023-03-27T01:21:12.383Z,77.82
2023-03-27T01:22:12.350Z,78.03
2023-03-27T01:23:12.333Z,78.13
2023-03-27T01:24:12.332Z,78.48
2023-03-27T01:25:12.306Z,78.48
2023-03-27T01:26:12.319Z,78.69
2023-03-27T01:27:12.279Z,78.69
2023-03-27T01:28:12.266Z,78.58
2023-03-27T01:29:12.301Z,78.69
2023-03-27T01:30:12.261Z,78.79
2023-03-27T01:31:12.258Z,79.00
2023-03-27T01:32:12.212Z,79.21
2023-03-27T01:33:12.214Z,79.45
2023-03-27T01:34:12.197Z,79.55
2023-03-27T01:35:12.177Z,79.66
2023-03-27T01:36:12.174Z,79.55
2023-03-27T01:37:12.148Z,79.55
2023-03-27T01:38:12.135Z,79.55
2023-03-27T01:39:12.127Z,79.66
2023-03-27T01:40:12.110Z,79.97
2023-03-27T01:41:12.105Z,79.80
2023-03-27T01:42:12.100Z,80.01
2023-03-27T01:43:12.078Z,80.11
2023-03-27T01:44:12.080Z,80.11
2023-03-27T01:45:12.050Z,80.11
2023-03-27T01:46:12.079Z,80.43
2023-03-27T01:47:12.017Z,80.43
2023-03-27T01:48:12.018Z,80.53
2023-03-27T01:49:12.009Z,80.43
2023-03-27T01:50:12.009Z,80.32
2023-03-27T01:51:11.964Z,80.32
2023-03-27T01:52:11.985Z,80.53
2023-03-27T01:53:11.942Z,80.77
2023-03-27T01:54:11.932Z,80.88
2023-03-27T01:55:11.924Z,81.19
2023-03-27T01:56:11.903Z,81.09
2023-03-27T01:57:11.974Z,81.09
2023-03-27T01:58:11.880Z,81.19
2023-03-27T01:59:11.866Z,81.19
2023-03-27T02:00:18.002Z,81.19
2023-03-27T02:01:13.016Z,81.50
2023-03-27T02:02:11.847Z,81.33
2023-03-27T02:03:11.823Z,81.54
2023-03-27T02:04:11.807Z,81.54
2023-03-27T02:05:11.879Z,81.54
2023-03-27T02:06:11.787Z,81.65
2023-03-27T02:07:11.779Z,81.54
2023-03-27T02:08:11.749Z,81.54
2023-03-27T02:09:11.732Z,81.85
2023-03-27T02:10:11.727Z,81.85
2023-03-27T02:11:11.728Z,81.75
2023-03-27T02:12:11.717Z,81.65
2023-03-27T02:13:11.689Z,81.65
2023-03-27T02:14:11.673Z,81.85
2023-03-27T02:15:22.971Z,81.75
2023-03-27T02:16:12.719Z,81.75
2023-03-27T02:17:11.652Z,81.54
2023-03-27T02:18:11.628Z,82.06
2023-03-27T02:19:11.613Z,82.06
2023-03-27T02:20:11.617Z,82.31
2023-03-27T02:21:11.579Z,82.72
2023-03-27T02:22:11.590Z,82.51
2023-03-27T02:23:11.552Z,82.72
2023-03-27T02:24:11.553Z,82.72
2023-03-27T02:25:11.547Z,82.93
2023-03-27T02:26:11.525Z,82.93
2023-03-27T02:27:11.517Z,83.25
2023-03-27T02:28:11.486Z,83.14
2023-03-27T02:29:11.509Z,83.14
2023-03-27T02:30:11.474Z,83.25
2023-03-27T02:31:33.485Z,83.28
2023-03-27T02:32:12.496Z,83.59
2023-03-27T02:33:11.489Z,83.80
2023-03-27T02:34:11.454Z,83.80
2023-03-27T02:35:11.413Z,83.80
2023-03-27T02:36:11.436Z,83.70
2023-03-27T02:37:11.806Z,84.01
2023-03-27T02:38:11.382Z,84.12
2023-03-27T02:39:11.359Z,84.01
2023-03-27T02:40:11.340Z,84.01
2023-03-27T02:41:11.325Z,84.01
2023-03-27T02:42:11.332Z,84.01
2023-03-27T02:43:11.294Z,84.12
2023-03-27T02:44:11.375Z,84.33
2023-03-27T02:45:11.280Z,84.26
2023-03-27T02:46:11.302Z,84.26
2023-03-27T02:47:11.268Z,84.26
2023-03-27T02:48:11.305Z,84.47
2023-03-27T02:49:11.234Z,84.57
2023-03-27T02:50:11.221Z,84.36
2023-03-27T02:51:11.207Z,84.36
2023-03-27T02:52:11.218Z,84.47
2023-03-27T02:53:11.175Z,84.47
2023-03-27T02:54:11.172Z,84.67
2023-03-27T02:55:11.155Z,84.67
2023-03-27T02:56:11.161Z,84.78
2023-03-27T02:57:11.183Z,84.67
2023-03-27T02:58:11.154Z,84.67
2023-03-27T02:59:11.098Z,84.88
2023-03-27T03:00:11.095Z,84.67
2023-03-27T03:01:11.112Z,84.57
2023-03-27T03:02:11.101Z,84.67
2023-03-27T03:03:11.163Z,84.67
2023-03-27T03:04:11.049Z,84.67
2023-03-27T03:05:11.018Z,84.78
2023-03-27T03:06:11.035Z,84.78
2023-03-27T03:07:11.010Z,84.88
2023-03-27T03:08:10.984Z,85.13
2023-03-27T03:09:10.978Z,84.88
2023-03-27T03:10:10.961Z,85.10
2023-03-27T03:11:10.944Z,84.88
2023-03-27T03:12:10.971Z,85.03
2023-03-27T03:13:10.918Z,85.13
2023-03-27T03:14:10.912Z,85.24
2023-03-27T03:15:10.906Z,85.55
2023-03-27T03:16:10.982Z,85.55
2023-03-27T03:17:10.883Z,85.86
2023-03-27T03:18:10.859Z,85.65
2023-03-27T03:19:10.859Z,85.86
2023-03-27T03:20:10.851Z,85.65
2023-03-27T03:21:10.821Z,85.55
2023-03-27T03:22:10.826Z,85.44
2023-03-27T03:23:10.800Z,85.55
2023-03-27T03:24:10.788Z,85.86
2023-03-27T03:25:10.770Z,85.76
2023-03-27T03:26:10.819Z,85.76
2023-03-27T03:27:10.778Z,85.65
2023-03-27T03:28:10.735Z,85.97
2023-03-27T03:29:12.780Z,85.65
2023-03-27T03:30:10.713Z,85.86
2023-03-27T03:31:11.750Z,85.86
2023-03-27T03:32:10.701Z,85.97
2023-03-27T03:33:10.670Z,86.07
2023-03-27T03:34:10.648Z,85.76
2023-03-27T03:35:10.666Z,85.34
2023-03-27T03:36:10.682Z,84.88
2023-03-27T03:37:10.635Z,84.99
2023-03-27T03:38:10.609Z,85.10
2023-03-27T03:39:10.600Z,85.10
2023-03-27T03:40:10.577Z,85.20
2023-03-27T03:41:10.655Z,84.88
2023-03-27T03:42:10.566Z,84.78
2023-03-27T03:43:11.598Z,84.88
2023-03-27T03:44:10.599Z,84.78
2023-03-27T03:45:10.544Z,84.67
2023-03-27T03:46:10.549Z,84.53
2023-03-27T03:47:10.506Z,84.57
2023-03-27T03:48:10.530Z,84.53
2023-03-27T03:49:10.466Z,84.67
2023-03-27T03:50:10.452Z,84.74
2023-03-27T03:51:10.458Z,84.57
2023-03-27T03:52:10.469Z,84.57
2023-03-27T03:53:10.415Z,84.78
2023-03-27T03:54:10.432Z,85.10
2023-03-27T03:55:10.428Z,84.88
2023-03-27T03:56:10.375Z,84.67
2023-03-27T03:57:10.415Z,84.88
2023-03-27T03:58:10.352Z,84.99
2023-03-27T03:59:10.336Z,85.30
2023-03-27T04:00:10.317Z,85.30
2023-03-27T04:01:10.324Z,85.51
2023-03-27T04:02:10.363Z,85.82
2023-03-27T04:03:10.369Z,86.07
2023-03-27T04:04:10.266Z,86.28
2023-03-27T04:05:10.277Z,86.49
2023-03-27T04:06:10.266Z,86.59
2023-03-27T04:07:10.243Z,86.69
2023-03-27T04:08:10.234Z,86.80
2023-03-27T04:09:10.203Z,86.91
2023-03-27T04:10:10.190Z,86.91
2023-03-27T04:11:10.192Z,87.12
2023-03-27T04:12:10.194Z,87.32
2023-03-27T04:13:10.161Z,87.43
2023-03-27T04:14:10.162Z,87.32
2023-03-27T04:15:10.136Z,87.22
2023-03-27T04:16:10.188Z,87.22
2023-03-27T04:17:10.120Z,87.22
2023-03-27T04:18:10.184Z,87.22
2023-03-27T04:19:10.082Z,87.32
2023-03-27T04:20:10.067Z,86.91
2023-03-27T04:21:10.060Z,86.80
2023-03-27T04:22:10.063Z,86.91
2023-03-27T04:23:10.031Z,86.91
2023-03-27T04:24:10.011Z,86.80
2023-03-27T04:25:10.026Z,86.91
2023-03-27T04:26:10.015Z,86.94
2023-03-27T04:27:09.993Z,87.05
2023-03-27T04:28:09.965Z,87.05
2023-03-27T04:29:09.962Z,87.15
2023-03-27T04:30:09.945Z,87.15
2023-03-27T04:31:09.959Z,87.15
2023-03-27T04:32:09.928Z,87.26
2023-03-27T04:33:09.911Z,87.26
2023-03-27T04:34:09.901Z,87.26
2023-03-27T04:35:09.892Z,87.15
2023-03-27T04:36:09.926Z,87.05
2023-03-27T04:37:09.870Z,86.84
2023-03-27T04:38:09.854Z,86.84
2023-03-27T04:39:09.831Z,86.94
2023-03-27T04:40:09.821Z,86.69
2023-03-27T04:41:09.813Z,86.80
2023-03-27T04:42:09.806Z,86.69
2023-03-27T04:43:09.806Z,86.80
2023-03-27T04:44:09.772Z,86.69
2023-03-27T04:45:09.777Z,86.38
2023-03-27T04:46:09.764Z,86.69
2023-03-27T04:47:09.782Z,86.80
2023-03-27T04:48:09.725Z,86.69
2023-03-27T04:49:09.710Z,86.80
2023-03-27T04:50:09.696Z,86.80
2023-03-27T04:51:09.722Z,86.59
2023-03-27T04:52:09.666Z,86.13
2023-03-27T04:53:09.672Z,86.24
2023-03-27T04:54:09.643Z,85.93
2023-03-27T04:55:09.641Z,86.24
2023-03-27T04:56:09.617Z,86.13
2023-03-27T04:57:09.653Z,86.35
2023-03-27T04:58:09.609Z,86.24
2023-03-27T04:59:09.583Z,86.24
2023-03-27T05:00:09.573Z,86.24
2023-03-27T05:01:09.687Z,86.30
2023-03-27T05:02:09.573Z,85.89
2023-03-27T05:03:09.619Z,86.20
2023-03-27T05:04:09.515Z,86.41
2023-03-27T05:05:09.506Z,86.30
2023-03-27T05:06:09.486Z,86.20
2023-03-27T05:07:09.478Z,86.20
2023-03-27T05:08:09.473Z,86.10
2023-03-27T05:09:09.489Z,86.41
2023-03-27T05:10:09.439Z,86.30
2023-03-27T05:11:09.556Z,86.41
2023-03-27T05:12:09.409Z,86.41
2023-03-27T05:13:09.420Z,86.61
2023-03-27T05:14:09.379Z,86.61
2023-03-27T05:15:09.374Z,86.83
2023-03-27T05:16:09.375Z,87.14
2023-03-27T05:17:09.351Z,87.24
2023-03-27T05:18:09.611Z,87.28
2023-03-27T05:19:09.341Z,87.28
2023-03-27T05:20:09.312Z,87.49
2023-03-27T05:21:09.312Z,87.60
2023-03-27T05:22:09.283Z,87.81
2023-03-27T05:23:09.293Z,87.91
2023-03-27T05:24:09.257Z,88.01
2023-03-27T05:25:09.257Z,88.12
2023-03-27T05:26:09.237Z,88.32
2023-03-27T05:27:09.219Z,88.43
2023-03-27T05:28:09.222Z,88.75
2023-03-27T05:29:09.196Z,88.75
2023-03-27T05:30:09.178Z,88.95
2023-03-27T05:31:09.211Z,88.95
2023-03-27T05:32:09.161Z,88.95
2023-03-27T05:33:09.224Z,88.95
2023-03-27T05:34:09.126Z,88.95
2023-03-27T05:35:09.123Z,88.95
2023-03-27T05:36:09.130Z,88.95
2023-03-27T05:37:09.101Z,88.95
2023-03-27T05:38:09.093Z,88.91
2023-03-27T05:39:09.074Z,88.91
2023-03-27T05:40:09.080Z,88.91
2023-03-27T05:41:09.043Z,88.91
2023-03-27T05:42:09.039Z,88.91
2023-03-27T05:43:09.034Z,89.01
2023-03-27T05:44:09.001Z,89.01
2023-03-27T05:45:09.007Z,89.26
2023-03-27T05:46:09.078Z,89.43
2023-03-27T05:47:08.973Z,89.22
2023-03-27T05:48:09.098Z,89.32
2023-03-27T05:49:08.976Z,89.22
2023-03-27T05:50:08.925Z,89.08
2023-03-27T05:51:08.914Z,88.98
2023-03-27T05:52:08.897Z,88.87
2023-03-27T05:53:08.907Z,88.98
2023-03-27T05:54:08.870Z,89.08
2023-03-27T05:55:08.862Z,88.66
2023-03-27T05:56:08.852Z,88.52
2023-03-27T05:57:08.873Z,88.42
2023-03-27T05:58:08.837Z,88.42
2023-03-27T05:59:08.810Z,88.42
2023-03-27T06:00:08.790Z,88.10
2023-03-27T06:01:08.783Z,88.37
2023-03-27T06:02:08.792Z,88.06
2023-03-27T06:03:09.004Z,87.71
2023-03-27T06:04:08.801Z,87.50
2023-03-27T06:05:08.731Z,87.25
2023-03-27T06:06:08.718Z,86.73
2023-03-27T06:07:08.708Z,86.83
2023-03-27T06:08:08.702Z,87.04
2023-03-27T06:09:08.679Z,86.42
2023-03-27T06:10:13.273Z,86.69
2023-03-27T06:11:09.651Z,86.38
2023-03-27T06:12:08.638Z,85.75
2023-03-27T06:13:08.658Z,85.55
2023-03-27T06:14:08.610Z,85.86
2023-03-27T06:15:08.607Z,86.27
2023-03-27T06:16:08.696Z,86.49
2023-03-27T06:17:08.576Z,86.27
2023-03-27T06:18:08.594Z,86.17
2023-03-27T06:19:08.562Z,86.59
2023-03-27T06:20:08.545Z,86.80
2023-03-27T06:21:08.532Z,86.59
2023-03-27T06:22:08.518Z,86.80
2023-03-27T06:23:08.515Z,86.49
2023-03-27T06:24:08.484Z,86.83
2023-03-27T06:25:08.487Z,87.25
2023-03-27T06:26:08.458Z,87.46
2023-03-27T06:27:10.726Z,87.46
2023-03-27T06:28:08.445Z,87.60
2023-03-27T06:29:08.674Z,87.92
2023-03-27T06:30:08.405Z,88.12
2023-03-27T06:31:08.477Z,88.09
2023-03-27T06:32:08.387Z,87.66
2023-03-27T06:33:08.447Z,87.42
2023-03-27T06:34:08.352Z,87.21
2023-03-27T06:35:08.361Z,86.86
2023-03-27T06:36:08.429Z,86.13
2023-03-27T06:37:08.330Z,85.93
2023-03-27T06:38:08.313Z,85.88
2023-03-27T06:39:08.294Z,85.57
2023-03-27T06:40:08.274Z,84.95
2023-03-27T06:41:08.272Z,85.47
2023-03-27T06:42:08.258Z,85.43
2023-03-27T06:43:08.264Z,84.64
2023-03-27T06:44:08.228Z,84.81
2023-03-27T06:45:08.227Z,84.70
2023-03-27T06:46:08.308Z,84.12
2023-03-27T06:47:08.327Z,84.53
2023-03-27T06:48:16.201Z,84.53
2023-03-27T06:49:09.165Z,84.91
2023-03-27T06:50:08.142Z,84.29
2023-03-27T06:51:08.131Z,84.81
2023-03-27T06:52:08.121Z,84.81
2023-03-27T06:53:19.538Z,84.81
2023-03-27T06:54:09.098Z,85.33
2023-03-27T06:55:08.099Z,84.46
2023-03-27T06:56:09.072Z,84.25
2023-03-27T06:57:08.085Z,84.46
2023-03-27T06:58:08.057Z,84.15
2023-03-27T06:59:08.039Z,84.46
2023-03-27T07:00:08.068Z,84.19
2023-03-27T07:01:08.016Z,84.60
2023-03-27T07:02:08.037Z,84.60
2023-03-27T07:03:08.016Z,84.36
2023-03-27T07:04:07.971Z,84.29
2023-03-27T07:05:07.965Z,85.39
2023-03-27T07:06:08.040Z,84.25
2023-03-27T07:07:07.928Z,84.11
2023-03-27T07:08:18.970Z,83.86
2023-03-27T07:09:08.897Z,82.93
2023-03-27T07:10:07.874Z,83.38
2023-03-27T07:11:11.627Z,83.48
2023-03-27T07:12:07.854Z,83.38
2023-03-27T07:13:07.856Z,83.38
2023-03-27T07:14:07.825Z,83.34
2023-03-27T07:15:07.816Z,82.76
2023-03-27T07:16:07.866Z,83.24
2023-03-27T07:17:09.287Z,82.62
2023-03-27T07:18:07.798Z,82.72
2023-03-27T07:19:07.797Z,82.48
2023-03-27T07:20:07.752Z,81.75
2023-03-27T07:21:07.744Z,81.75
2023-03-27T07:22:07.722Z,81.34
2023-03-27T07:23:07.714Z,81.02
2023-03-27T07:24:07.890Z,82.13
2023-03-27T07:25:07.713Z,80.95
2023-03-27T07:26:07.669Z,79.81
2023-03-27T07:27:07.656Z,79.26
2023-03-27T07:28:07.640Z,79.40
2023-03-27T07:29:07.642Z,79.91
2023-03-27T07:30:07.611Z,80.81
2023-03-27T07:31:16.719Z,78.85
2023-03-27T07:32:09.543Z,78.95
2023-03-27T07:33:07.710Z,78.39
2023-03-27T07:34:07.745Z,78.19
2023-03-27T07:35:07.555Z,78.05
2023-03-27T07:36:07.572Z,77.01
2023-03-27T07:37:07.535Z,76.98
2023-03-27T07:38:07.515Z,75.78
2023-03-27T07:39:07.520Z,76.29
2023-03-27T07:40:07.488Z,76.43
2023-03-27T07:41:07.480Z,77.09
2023-03-27T07:42:07.480Z,78.12
2023-03-27T07:43:07.452Z,78.47
2023-03-27T07:44:07.445Z,78.50
2023-03-27T07:45:07.406Z,79.13
2023-03-27T07:46:07.459Z,78.85
2023-03-27T07:47:07.391Z,79.06
2023-03-27T07:48:07.478Z,78.96
2023-03-27T07:49:07.378Z,78.96
2023-03-27T07:50:07.360Z,79.58
2023-03-27T07:51:13.854Z,80.61
2023-03-27T07:52:08.328Z,79.33
2023-03-27T07:53:07.343Z,79.47
2023-03-27T07:54:07.331Z,79.64
2023-03-27T07:55:07.311Z,79.74
2023-03-27T07:56:07.286Z,79.50
2023-03-27T07:57:07.371Z,78.57
2023-03-27T07:58:07.415Z,78.57
2023-03-27T07:59:07.271Z,79.19
2023-03-27T08:00:07.241Z,78.16
2023-03-27T08:01:07.235Z,78.99
2023-03-27T08:02:07.203Z,78.23
2023-03-27T08:03:07.493Z,79.20
2023-03-27T08:04:07.403Z,79.88
2023-03-27T08:05:07.288Z,80.30
2023-03-27T08:06:07.172Z,79.16
2023-03-27T08:07:07.147Z,79.68
2023-03-27T08:08:07.137Z,79.78
2023-03-27T08:09:07.130Z,79.61
2023-03-27T08:10:07.106Z,79.61
2023-03-27T08:11:11.494Z,80.44
2023-03-27T08:12:08.076Z,80.33
2023-03-27T08:13:07.055Z,80.33
2023-03-27T08:14:07.069Z,80.58
2023-03-27T08:15:07.023Z,80.58
2023-03-27T08:16:07.025Z,81.13
2023-03-27T08:17:15.617Z,80.16
2023-03-27T08:18:08.082Z,78.95
2023-03-27T08:19:06.985Z,77.91
2023-03-27T08:20:06.961Z,78.26
2023-03-27T08:21:06.953Z,78.53
2023-03-27T08:22:06.951Z,78.81
2023-03-27T08:23:06.922Z,78.05
2023-03-27T08:24:06.922Z,77.56
2023-03-27T08:25:06.930Z,78.15
2023-03-27T08:26:06.895Z,76.18
2023-03-27T08:27:06.859Z,75.74
2023-03-27T08:28:06.872Z,76.64
2023-03-27T08:29:06.862Z,76.39
2023-03-27T08:30:06.864Z,76.15
2023-03-27T08:31:06.815Z,76.43
2023-03-27T08:32:06.812Z,75.77
2023-03-27T08:33:06.845Z,75.63
2023-03-27T08:34:06.803Z,74.57
2023-03-27T08:35:06.759Z,72.99
2023-03-27T08:36:08.815Z,74.60
2023-03-27T08:37:06.744Z,75.88
2023-03-27T08:38:13.812Z,75.98
2023-03-27T08:39:07.726Z,75.84
2023-03-27T08:40:06.694Z,75.78
2023-03-27T08:41:06.683Z,76.26
2023-03-27T08:42:06.672Z,76.84
2023-03-27T08:43:06.673Z,77.09
2023-03-27T08:44:06.662Z,78.08
2023-03-27T08:45:06.657Z,77.36
2023-03-27T08:46:06.664Z,78.05
2023-03-27T08:47:06.608Z,76.53
2023-03-27T08:48:06.657Z,74.67
2023-03-27T08:49:06.590Z,75.12
2023-03-27T08:50:06.578Z,75.87
2023-03-27T08:51:06.553Z,75.29
2023-03-27T08:52:06.541Z,74.77
2023-03-27T08:53:06.535Z,75.53
2023-03-27T08:54:06.544Z,75.43
2023-03-27T08:55:06.550Z,75.05
2023-03-27T08:56:06.507Z,75.43
2023-03-27T08:57:06.482Z,74.71
2023-03-27T08:58:06.468Z,75.39
2023-03-27T08:59:06.465Z,74.02
2023-03-27T09:00:06.437Z,73.85
2023-03-27T09:01:06.437Z,74.36
2023-03-27T09:02:06.451Z,74.77
2023-03-27T09:03:06.496Z,74.26
2023-03-27T09:04:06.415Z,75.19
2023-03-27T09:05:06.392Z,74.26
2023-03-27T09:06:06.367Z,72.02
2023-03-27T09:07:06.353Z,73.05
2023-03-27T09:08:06.342Z,72.85
2023-03-27T09:09:06.332Z,73.68
2023-03-27T09:10:06.316Z,72.81
2023-03-27T09:11:06.287Z,74.71
2023-03-27T09:12:06.288Z,74.60
2023-03-27T09:13:06.265Z,74.95
2023-03-27T09:14:06.295Z,75.78
2023-03-27T09:15:06.250Z,75.57
2023-03-27T09:16:06.258Z,75.01
2023-03-27T09:17:06.214Z,73.95
2023-03-27T09:18:06.228Z,73.91
2023-03-27T09:19:06.200Z,73.39
2023-03-27T09:20:06.191Z,73.29
2023-03-27T09:21:06.161Z,73.33
2023-03-27T09:22:06.152Z,73.91
2023-03-27T09:23:06.133Z,70.33
2023-03-27T09:24:06.128Z,71.26
2023-03-27T09:25:06.105Z,70.54
2023-03-27T09:26:06.094Z,69.71
2023-03-27T09:27:07.534Z,71.26
2023-03-27T09:28:06.062Z,71.37
2023-03-27T09:29:06.078Z,72.43
2023-03-27T09:30:06.514Z,72.95
2023-03-27T09:31:06.035Z,73.47
2023-03-27T09:32:06.041Z,73.57
2023-03-27T09:33:06.073Z,73.43
2023-03-27T09:34:06.014Z,72.85
2023-03-27T09:35:05.972Z,73.33
2023-03-27T09:36:06.006Z,73.19
2023-03-27T09:37:05.952Z,71.57
2023-03-27T09:38:05.925Z,72.02
2023-03-27T09:39:05.924Z,70.03
2023-03-27T09:40:05.924Z,69.99
2023-03-27T09:41:05.900Z,71.06
2023-03-27T09:42:06.826Z,68.76
2023-03-27T09:43:05.878Z,68.32
2023-03-27T09:44:05.871Z,67.29
2023-03-27T09:45:05.863Z,68.01
2023-03-27T09:46:05.849Z,68.80
2023-03-27T09:47:05.823Z,67.84
2023-03-27T09:48:05.850Z,67.46
2023-03-27T09:49:05.842Z,65.99
2023-03-27T09:50:05.782Z,65.53
2023-03-27T09:51:05.792Z,66.02
2023-03-27T09:52:05.763Z,66.53
2023-03-27T09:53:05.736Z,66.43
2023-03-27T09:54:05.737Z,67.50
2023-03-27T09:55:05.848Z,64.56
2023-03-27T09:56:05.740Z,64.70
2023-03-27T09:57:05.703Z,63.85
2023-03-27T09:58:05.721Z,62.83
2023-03-27T09:59:05.666Z,62.73
2023-03-27T10:00:05.641Z,62.62
2023-03-27T10:01:05.661Z,62.75
2023-03-27T10:02:06.975Z,62.55
2023-03-27T10:03:05.863Z,61.37
2023-03-27T10:04:05.671Z,61.94
2023-03-27T10:05:05.588Z,63.03
2023-03-27T10:06:05.566Z,65.02
2023-03-27T10:07:05.614Z,65.64
2023-03-27T10:08:05.535Z,64.09
2023-03-27T10:09:05.564Z,64.64
2023-03-27T10:10:05.615Z,64.77
2023-03-27T10:11:05.497Z,65.18
2023-03-27T10:12:05.836Z,66.24
2023-03-27T10:13:05.488Z,65.91
2023-03-27T10:14:05.511Z,66.35
2023-03-27T10:15:05.503Z,66.52
2023-03-27T10:16:05.555Z,65.74
2023-03-27T10:17:05.488Z,63.99
2023-03-27T10:18:05.443Z,64.81
2023-03-27T10:19:05.451Z,64.27
2023-03-27T10:20:05.464Z,63.65
2023-03-27T10:21:05.373Z,63.68
2023-03-27T10:22:05.382Z,63.47
2023-03-27T10:23:05.383Z,63.57
2023-03-27T10:24:05.461Z,63.43
2023-03-27T10:25:05.393Z,65.49
2023-03-27T10:26:05.408Z,67.30
2023-03-27T10:27:05.384Z,70.67
2023-03-27T10:28:05.298Z,76.22
2023-03-27T10:29:05.289Z,81.88
2023-03-27T10:30:05.277Z,86.72
2023-03-27T10:31:05.273Z,90.27
2023-03-27T10:32:05.321Z,93.37
2023-03-27T10:33:05.296Z,95.38
2023-03-27T10:34:05.231Z,96.98
2023-03-27T10:35:05.193Z,98.23
2023-03-27T10:36:05.213Z,99.06
2023-03-27T10:37:05.177Z,98.96
2023-03-27T10:38:05.148Z,99.74
2023-03-27T10:39:05.147Z,99.99
2023-03-27T10:40:05.137Z,99.71
2023-03-27T10:41:05.104Z,98.94
2023-03-27T10:42:05.139Z,99.57
2023-03-27T10:43:05.078Z,98.49
2023-03-27T10:44:05.086Z,96.83
2023-03-27T10:45:05.111Z,97.45
2023-03-27T10:46:05.139Z,95.64
2023-03-27T10:47:05.046Z,94.95
2023-03-27T10:48:05.026Z,95.72
2023-03-27T10:49:05.015Z,97.59
2023-03-27T10:50:04.989Z,97.69
2023-03-27T10:51:04.973Z,96.20
2023-03-27T10:52:04.965Z,94.89
2023-03-27T10:53:04.983Z,95.31
2023-03-27T10:54:05.061Z,95.57
2023-03-27T10:55:04.919Z,94.95
2023-03-27T10:56:04.914Z,95.95
2023-03-27T10:57:04.896Z,93.93
2023-03-27T10:58:04.882Z,92.13
2023-03-27T10:59:04.889Z,92.71
2023-03-27T11:00:04.917Z,91.57
2023-03-27T11:01:04.869Z,92.24
2023-03-27T11:02:04.832Z,92.59
2023-03-27T11:03:04.875Z,92.80
2023-03-27T11:04:04.808Z,93.62
2023-03-27T11:05:04.804Z,92.59
2023-03-27T11:06:04.770Z,93.68
2023-03-27T11:07:04.759Z,92.71
2023-03-27T11:08:04.743Z,91.99
2023-03-27T11:09:04.753Z,92.25
2023-03-27T11:10:04.756Z,90.87
2023-03-27T11:11:04.746Z,91.82
2023-03-27T11:12:04.690Z,91.32
2023-03-27T11:13:04.677Z,86.03
2023-03-27T11:14:04.696Z,87.65
2023-03-27T11:15:04.664Z,87.60
2023-03-27T11:16:04.649Z,86.22
2023-03-27T11:17:04.695Z,86.29
2023-03-27T11:18:04.636Z,86.02
2023-03-27T11:19:04.610Z,86.57
2023-03-27T11:20:04.618Z,84.75
2023-03-27T11:21:04.583Z,86.41
2023-03-27T11:22:04.580Z,87.37
2023-03-27T11:23:04.572Z,87.00
2023-03-27T11:24:04.610Z,86.83
2023-03-27T11:25:04.562Z,87.15
2023-03-27T11:26:04.557Z,88.01
2023-03-27T11:27:04.508Z,88.53
2023-03-27T11:28:04.495Z,87.08
2023-03-27T11:29:04.478Z,85.47
2023-03-27T11:30:04.477Z,87.16
2023-03-27T11:31:12.926Z,87.47
2023-03-27T11:32:05.481Z,86.96
2023-03-27T11:33:04.504Z,87.72
2023-03-27T11:34:04.405Z,87.82
2023-03-27T11:35:04.613Z,88.96
2023-03-27T11:36:04.472Z,88.79
2023-03-27T11:37:04.396Z,90.08
2023-03-27T11:38:04.353Z,90.06
2023-03-27T11:39:04.344Z,91.66
2023-03-27T11:40:04.352Z,92.53
2023-03-27T11:41:04.313Z,94.18
2023-03-27T11:42:04.311Z,95.05
2023-03-27T11:43:04.282Z,96.61
2023-03-27T11:44:04.277Z,98.11
2023-03-27T11:45:04.281Z,99.72
2023-03-27T11:46:04.268Z,99.99
2023-03-27T11:47:04.253Z,99.99
2023-03-27T11:48:04.259Z,99.99
2023-03-27T11:49:04.217Z,99.99
2023-03-27T11:50:04.232Z,99.99
2023-03-27T11:51:04.238Z,99.99
2023-03-27T11:52:04.179Z,99.99
2023-03-27T11:53:04.164Z,99.99
2023-03-27T11:54:04.397Z,99.99
2023-03-27T11:55:04.154Z,99.99
2023-03-27T11:56:04.128Z,99.99
2023-03-27T11:57:04.159Z,99.99
2023-03-27T11:58:04.105Z,99.99
2023-03-27T11:59:04.077Z,99.99
2023-03-27T12:00:04.087Z,99.99
2023-03-27T12:01:04.057Z,99.99
2023-03-27T12:02:04.070Z,99.99
2023-03-27T12:03:04.107Z,99.99
2023-03-27T12:04:04.099Z,99.99
2023-03-27T12:05:04.014Z,99.99
2023-03-27T12:06:03.988Z,99.99
2023-03-27T12:07:04.905Z,99.99
2023-03-27T12:08:03.953Z,99.99
2023-03-27T12:09:03.963Z,99.99
2023-03-27T12:10:03.952Z,99.99
2023-03-27T12:11:03.940Z,99.99
2023-03-27T12:12:03.926Z,99.99
2023-03-27T12:13:03.900Z,99.77
2023-03-27T12:14:08.928Z,99.40
2023-03-27T12:15:04.922Z,99.40
2023-03-27T12:16:03.902Z,99.19
2023-03-27T12:17:03.929Z,99.99
2023-03-27T12:18:03.974Z,99.99
2023-03-27T12:19:10.657Z,99.98
2023-03-27T12:20:04.816Z,99.99
2023-03-27T12:21:04.125Z,98.58
2023-03-27T12:22:09.282Z,99.88
2023-03-27T12:23:04.767Z,98.39
2023-03-27T12:24:03.744Z,97.35
2023-03-27T12:25:03.756Z,96.11
2023-03-27T12:26:03.748Z,96.27
2023-03-27T12:27:03.925Z,95.54
2023-03-27T12:28:03.686Z,95.81
2023-03-27T12:29:03.685Z,94.16
2023-03-27T12:30:04.691Z,92.81
2023-03-27T12:31:03.662Z,93.54
2023-03-27T12:32:03.690Z,93.02
2023-03-27T12:33:03.657Z,92.76
2023-03-27T12:34:03.612Z,92.34
2023-03-27T12:35:03.653Z,92.61
2023-03-27T12:36:03.676Z,94.53
2023-03-27T12:37:03.580Z,94.28
2023-03-27T12:38:03.588Z,92.38
2023-03-27T12:39:03.559Z,92.38
2023-03-27T12:40:03.556Z,92.40
2023-03-27T12:41:03.518Z,89.95
2023-03-27T12:42:03.514Z,91.73
2023-03-27T12:43:03.505Z,88.68
2023-03-27T12:44:03.554Z,89.29
2023-03-27T12:45:03.518Z,90.76
2023-03-27T12:46:03.683Z,89.11
2023-03-27T12:47:03.475Z,88.49
2023-03-27T12:48:03.504Z,87.65
2023-03-27T12:49:03.441Z,89.05
2023-03-27T12:50:03.447Z,87.08
2023-03-27T12:51:03.409Z,89.56
2023-03-27T12:52:03.377Z,86.78